Buchanan #12 — WDC2499 — position and weather

sailwx.info

Track history (hours):
 
Tides and Currents Weather Stations Pressure Air Temp Water Temp Dewpoint Dewpoint Depression Visibility Wind Speed Wind Dir Waves Ship Positions

Buchanan #12

Owner: Buchanan Marine LP, New Haven, CT. More information available from US FCC via Universal Licensing System and Coast Guard Vessel Documentation Center.

Last reported at 2018-Jun-18 13:28 UTC. Time now 2018-Jun-18 13:42 UTC.
Position N 40°47' W 074°00'.

Length 27 m; draft 3 m.

Type: Tug. MMSI: 366993970.

Date/timePositionNaut miles runAvg speedWind from/ knotsBaromVisibWave heightAir tempDewpointWater temp
2018-Jun-18 13:28N 40°47' W 074°00'2 5.3
2018-Jun-18 13:01N 40°45' W 074°01'3 5.5
2018-Jun-18 12:30N 40°42' W 074°02'2 3.5
2018-Jun-18 12:00N 40°40' W 074°03'0 0.1
2018-Jun-18 11:30N 40°40' W 074°03'2 3.6
2018-Jun-18 11:01N 40°40' W 074°01'0 0.0
2018-Jun-18 10:30N 40°40' W 074°01'0 0.1
2018-Jun-18 10:01N 40°40' W 074°01'0 0.0
2018-Jun-18 09:31N 40°40' W 074°01'0 0.0
2018-Jun-18 09:00N 40°40' W 074°01'0 0.0
2018-Jun-18 08:30N 40°40' W 074°01'0 0.0
2018-Jun-18 08:01N 40°40' W 074°01'0 0.0
2018-Jun-18 07:31N 40°40' W 074°01'0 0.0
2018-Jun-18 07:00N 40°40' W 074°01'0 0.0
2018-Jun-18 06:30N 40°40' W 074°01'0 0.0
2018-Jun-18 06:00N 40°40' W 074°01'0 0.0
2018-Jun-18 05:31N 40°40' W 074°01'0 0.0
2018-Jun-18 05:01N 40°40' W 074°01'0 0.0
2018-Jun-18 04:30N 40°40' W 074°01'1 1.0
2018-Jun-18 04:00N 40°40' W 074°01'4 8.1
2018-Jun-18 03:31N 40°39' W 074°06'4 7.3
2018-Jun-18 02:59N 40°39' W 074°11'0 0.9
2018-Jun-18 02:30N 40°38' W 074°12'0 0.0
2018-Jun-18 02:00N 40°38' W 074°12'0 0.0
2018-Jun-18 01:29N 40°38' W 074°12'0 0.0
2018-Jun-18 00:27N 40°38' W 074°12'0 0.0
2018-Jun-17 23:59N 40°38' W 074°12'4 7.9
2018-Jun-17 23:30N 40°39' W 074°07'3 5.5
2018-Jun-17 23:00N 40°40' W 074°03'1 1.2
2018-Jun-17 22:30N 40°40' W 074°03'3 6.5
2018-Jun-17 22:00N 40°43' W 074°02'9 0.5
2018-Jun-17 00:59N 40°52' W 073°57'4 6.3
2018-Jun-17 00:18N 40°48' W 073°59'2 5.9
2018-Jun-16 23:59N 40°47' W 074°00'2 5.0
2018-Jun-16 23:31N 40°44' W 074°01'2 4.6
2018-Jun-16 23:00N 40°42' W 074°02'2 4.3
2018-Jun-16 22:31N 40°40' W 074°03'0 0.8
2018-Jun-16 22:01N 40°40' W 074°03'0 0.2
2018-Jun-16 21:31N 40°40' W 074°03'0 0.2
2018-Jun-16 21:00N 40°40' W 074°03'0 0.3
2018-Jun-16 20:31N 40°40' W 074°03'2 3.5
2018-Jun-16 20:00N 40°41' W 074°01'4 7.5
2018-Jun-16 19:30N 40°44' W 073°58'4 1.2
2018-Jun-16 16:12N 40°47' W 073°55'2 5.2
2018-Jun-16 15:51N 40°46' W 073°57'2 4.7
2018-Jun-16 15:30N 40°44' W 073°58'2 3.2
2018-Jun-16 15:00N 40°43' W 073°58'3 5.3
2018-Jun-16 14:31N 40°41' W 074°01'2 4.5
2018-Jun-16 14:00N 40°40' W 074°03'0 0.1
2018-Jun-16 13:30N 40°40' W 074°03'1 1.0
2018-Jun-16 13:00N 40°40' W 074°03'1 1.0
2018-Jun-16 12:31N 40°40' W 074°03'1 1.7
2018-Jun-16 12:00N 40°40' W 074°03'3 5.6
2018-Jun-16 11:30N 40°43' W 074°02'6 0.3
2018-Jun-15 15:17N 40°49' W 073°59'2 7.8
2018-Jun-15 15:00N 40°47' W 074°00'4 7.5
2018-Jun-15 14:30N 40°43' W 074°02'4 7.1
2018-Jun-15 14:00N 40°40' W 074°03'0 0.0
2018-Jun-15 13:31N 40°40' W 074°03'0 0.0
2018-Jun-15 13:01N 40°40' W 074°03'0 0.0
2018-Jun-15 12:30N 40°40' W 074°03'0 0.0
2018-Jun-15 12:00N 40°40' W 074°03'2 3.7
2018-Jun-15 11:31N 40°40' W 074°01'2 3.7
2018-Jun-15 11:00N 40°40' W 074°03'0 0.1
2018-Jun-15 10:30N 40°40' W 074°03'0 0.7
2018-Jun-15 10:00N 40°40' W 074°03'2 4.9
2018-Jun-15 09:30N 40°42' W 074°02'2 4.5
2018-Jun-15 09:00N 40°44' W 074°01'8 0.4
2018-Jun-14 13:31N 40°52' W 073°56'5 8.4
2018-Jun-14 12:55N 40°48' W 073°59'3 8.0
2018-Jun-14 12:30N 40°45' W 074°01'4 7.3
2018-Jun-14 12:00N 40°41' W 074°02'2 3.0
2018-Jun-14 11:30N 40°40' W 074°03'0 0.0
2018-Jun-14 11:00N 40°40' W 074°03'0 0.2
2018-Jun-14 10:30N 40°40' W 074°03'0 0.4
2018-Jun-14 10:00N 40°40' W 074°03'2 3.4
2018-Jun-14 09:30N 40°41' W 074°02'3 5.2
2018-Jun-14 09:01N 40°44' W 074°01'7 0.3
2018-Jun-13 11:58N 40°50' W 073°58'3 7.2
2018-Jun-13 11:29N 40°47' W 073°60'3 6.5
2018-Jun-13 11:00N 40°44' W 074°01'3 6.1
2018-Jun-13 10:30N 40°41' W 074°03'1 2.0
2018-Jun-13 10:00N 40°40' W 074°03'0 0.2
2018-Jun-13 09:30N 40°40' W 074°03'0 0.0
2018-Jun-13 09:00N 40°40' W 074°03'0 0.1
2018-Jun-13 08:30N 40°40' W 074°03'0 0.0
2018-Jun-13 08:00N 40°40' W 074°03'0 0.0
2018-Jun-13 07:31N 40°40' W 074°03'0 0.0
2018-Jun-13 07:00N 40°40' W 074°03'0 0.0
2018-Jun-13 06:30N 40°40' W 074°03'0 0.0
2018-Jun-13 06:00N 40°40' W 074°03'0 0.1
2018-Jun-13 05:30N 40°40' W 074°03'0 0.1
2018-Jun-13 05:01N 40°40' W 074°03'0 0.2
2018-Jun-13 04:31N 40°40' W 074°03'0 0.7
2018-Jun-13 04:00N 40°40' W 074°03'1 1.5
2018-Jun-13 03:30N 40°40' W 074°02'4 7.2
2018-Jun-13 03:01N 40°43' W 073°58'3 0.4
2018-Jun-12 19:32N 40°46' W 073°57'0 8.2
2018-Jun-12 19:30N 40°46' W 073°57'3 7.0
2018-Jun-12 19:00N 40°42' W 073°59'3 5.6
2018-Jun-12 18:30N 40°40' W 074°02'1 1.0
2018-Jun-12 18:00N 40°40' W 074°01'1 1.0
2018-Jun-12 17:30N 40°40' W 074°02'1 1.6
2018-Jun-12 17:00N 40°40' W 074°03'1 1.3
2018-Jun-12 16:30N 40°40' W 074°03'0 0.1
2018-Jun-12 16:00N 40°40' W 074°03'2 4.5
2018-Jun-12 15:30N 40°42' W 074°02'3 6.6
2018-Jun-12 15:00N 40°45' W 074°01'3 0.2
2018-Jun-11 20:46N 40°48' W 073°59'2 7.3
2018-Jun-11 20:27N 40°46' W 074°01'4 6.8
2018-Jun-11 19:51N 40°42' W 074°02'2 6.0
2018-Jun-11 19:30N 40°40' W 074°03'0 0.0
2018-Jun-11 19:00N 40°40' W 074°03'0 0.0
2018-Jun-11 18:30N 40°40' W 074°03'0 0.0
2018-Jun-11 17:53N 40°40' W 074°03'0 0.0
2018-Jun-11 17:28N 40°40' W 074°03'0 0.0
2018-Jun-11 16:59N 40°40' W 074°03'0 0.0
2018-Jun-11 16:25N 40°40' W 074°03'0 0.1
2018-Jun-11 15:59N 40°40' W 074°03'2 0.4
2018-Jun-11 12:00N 40°39' W 074°05'3 6.1
2018-Jun-11 11:27N 40°40' W 074°01'0 0.1
2018-Jun-11 11:00N 40°40' W 074°01'0 0.0
2018-Jun-11 10:30N 40°40' W 074°01'0 0.0
2018-Jun-11 10:00N 40°40' W 074°01'0 0.0
2018-Jun-11 09:30N 40°40' W 074°01'0 0.0
2018-Jun-11 08:59N 40°40' W 074°01'0 0.0
2018-Jun-11 08:30N 40°40' W 074°01'0 0.0
2018-Jun-11 08:00N 40°40' W 074°01'0 0.0
2018-Jun-11 07:30N 40°40' W 074°01'0 0.0
2018-Jun-11 07:00N 40°40' W 074°01'0 0.0
2018-Jun-11 06:30N 40°40' W 074°01'0 0.0
2018-Jun-11 06:00N 40°40' W 074°01'0 0.0
2018-Jun-11 05:30N 40°40' W 074°01'0 0.0
2018-Jun-11 05:00N 40°40' W 074°01'0 0.0
2018-Jun-11 04:30N 40°40' W 074°01'0 0.0
2018-Jun-11 04:00N 40°40' W 074°01'0 0.0
2018-Jun-11 03:30N 40°40' W 074°01'0 0.0
2018-Jun-11 03:00N 40°40' W 074°01'0 0.0
2018-Jun-11 02:30N 40°40' W 074°01'1 1.2
2018-Jun-11 02:00N 40°40' W 074°01'5 8.7
2018-Jun-11 01:29N 40°39' W 074°07'4 6.5
2018-Jun-11 00:56N 40°38' W 074°12'0 1.0
2018-Jun-11 00:28N 40°39' W 074°11'4 8.8
2018-Jun-11 00:00N 40°39' W 074°06'2 4.4
2018-Jun-10 23:31N 40°40' W 074°03'0 0.2
2018-Jun-10 23:00N 40°40' W 074°03'1 2.6
2018-Jun-10 22:30N 40°41' W 074°02'1 3.0
2018-Jun-10 22:00N 40°43' W 074°02'1 2.8
2018-Jun-10 21:30N 40°44' W 074°01'1 2.7
2018-Jun-10 21:00N 40°45' W 074°01'8 0.3
2018-Jun-09 18:01N 40°52' W 073°56'0 3.7
2018-Jun-09 17:59N 40°52' W 073°56'3 3.3
2018-Jun-09 17:00N 40°49' W 073°58'1 2.5
2018-Jun-09 16:30N 40°48' W 073°59'1 2.1
2018-Jun-09 16:00N 40°47' W 073°59'2 1.9
2018-Jun-09 15:01N 40°46' W 074°01'1 2.3
2018-Jun-09 14:30N 40°45' W 074°01'1 2.4
2018-Jun-09 14:00N 40°43' W 074°02'1 2.9
2018-Jun-09 13:30N 40°42' W 074°02'2 3.3
2018-Jun-09 13:00N 40°40' W 074°03'1 1.5
2018-Jun-09 12:30N 40°40' W 074°03'0 0.0
2018-Jun-09 12:00N 40°40' W 074°03'1 2.3
2018-Jun-09 11:30N 40°41' W 074°02'4 8.3
2018-Jun-09 11:00N 40°43' W 073°58'3 0.4
2018-Jun-09 05:20N 40°46' W 073°57'2 6.8
2018-Jun-09 05:01N 40°44' W 073°58'3 5.7
2018-Jun-09 04:30N 40°41' W 074°00'3 5.1
2018-Jun-09 04:00N 40°40' W 074°03'0 0.5
2018-Jun-09 03:30N 40°40' W 074°03'0 0.0
2018-Jun-09 03:01N 40°40' W 074°03'0 0.0
2018-Jun-09 02:30N 40°40' W 074°03'0 0.2
2018-Jun-09 02:00N 40°40' W 074°03'0 0.1
2018-Jun-09 01:30N 40°40' W 074°03'0 0.2
2018-Jun-09 01:00N 40°40' W 074°03'0 0.0
2018-Jun-09 00:30N 40°40' W 074°03'0 0.9
2018-Jun-09 00:00N 40°40' W 074°03'2 4.5
2018-Jun-08 23:30N 40°40' W 073°60'1 2.1
2018-Jun-08 23:00N 40°40' W 074°01'2 3.2
2018-Jun-08 22:30N 40°40' W 074°03'0 0.1
2018-Jun-08 22:00N 40°40' W 074°03'1 1.1
2018-Jun-08 21:30N 40°40' W 074°03'1 1.1
2018-Jun-08 21:00N 40°40' W 074°03'2 3.7
2018-Jun-08 20:30N 40°40' W 074°01'0 0.2
2018-Jun-08 20:00N 40°40' W 074°01'2 3.9
2018-Jun-08 19:30N 40°40' W 074°03'0 0.2
2018-Jun-08 19:00N 40°40' W 074°03'0 0.4
2018-Jun-08 18:30N 40°40' W 074°04'2 3.2
2018-Jun-08 18:00N 40°41' W 074°02'2 4.4
2018-Jun-08 17:30N 40°43' W 074°01'3 5.3
2018-Jun-08 17:00N 40°46' W 074°01'  
Track history (hours):
 
Tides and Currents Weather Stations Pressure Air Temp Water Temp Dewpoint Dewpoint Depression Visibility Wind Speed Wind Dir Waves Ship Positions

Buchanan #12

Owner: Buchanan Marine LP, New Haven, CT. More information available from US FCC via Universal Licensing System and Coast Guard Vessel Documentation Center.

Last reported at 2018-Jun-18 13:28 UTC. Time now 2018-Jun-18 13:42 UTC.
Position N 40°47' W 074°00'.

Length 27 m; draft 3 m.

Type: Tug. MMSI: 366993970.

Date/timePositionNaut miles runAvg speedWind from/ knotsBaromVisibWave heightAir tempDewpointWater temp
2018-Jun-18 13:28N 40°47' W 074°00'2 5.3
2018-Jun-18 13:01N 40°45' W 074°01'3 5.5
2018-Jun-18 12:30N 40°42' W 074°02'2 3.5
2018-Jun-18 12:00N 40°40' W 074°03'0 0.1
2018-Jun-18 11:30N 40°40' W 074°03'2 3.6
2018-Jun-18 11:01N 40°40' W 074°01'0 0.0
2018-Jun-18 10:30N 40°40' W 074°01'0 0.1
2018-Jun-18 10:01N 40°40' W 074°01'0 0.0
2018-Jun-18 09:31N 40°40' W 074°01'0 0.0
2018-Jun-18 09:00N 40°40' W 074°01'0 0.0
2018-Jun-18 08:30N 40°40' W 074°01'0 0.0
2018-Jun-18 08:01N 40°40' W 074°01'0 0.0
2018-Jun-18 07:31N 40°40' W 074°01'0 0.0
2018-Jun-18 07:00N 40°40' W 074°01'0 0.0
2018-Jun-18 06:30N 40°40' W 074°01'0 0.0
2018-Jun-18 06:00N 40°40' W 074°01'0 0.0
2018-Jun-18 05:31N 40°40' W 074°01'0 0.0
2018-Jun-18 05:01N 40°40' W 074°01'0 0.0
2018-Jun-18 04:30N 40°40' W 074°01'1 1.0
2018-Jun-18 04:00N 40°40' W 074°01'4 8.1
2018-Jun-18 03:31N 40°39' W 074°06'4 7.3
2018-Jun-18 02:59N 40°39' W 074°11'0 0.9
2018-Jun-18 02:30N 40°38' W 074°12'0 0.0
2018-Jun-18 02:00N 40°38' W 074°12'0 0.0
2018-Jun-18 01:29N 40°38' W 074°12'0 0.0
2018-Jun-18 00:27N 40°38' W 074°12'0 0.0
2018-Jun-17 23:59N 40°38' W 074°12'4 7.9
2018-Jun-17 23:30N 40°39' W 074°07'3 5.5
2018-Jun-17 23:00N 40°40' W 074°03'1 1.2
2018-Jun-17 22:30N 40°40' W 074°03'3 6.5
2018-Jun-17 22:00N 40°43' W 074°02'9 0.5
2018-Jun-17 00:59N 40°52' W 073°57'4 6.3
2018-Jun-17 00:18N 40°48' W 073°59'2 5.9
2018-Jun-16 23:59N 40°47' W 074°00'2 5.0
2018-Jun-16 23:31N 40°44' W 074°01'2 4.6
2018-Jun-16 23:00N 40°42' W 074°02'2 4.3
2018-Jun-16 22:31N 40°40' W 074°03'0 0.8
2018-Jun-16 22:01N 40°40' W 074°03'0 0.2
2018-Jun-16 21:31N 40°40' W 074°03'0 0.2
2018-Jun-16 21:00N 40°40' W 074°03'0 0.3
2018-Jun-16 20:31N 40°40' W 074°03'2 3.5
2018-Jun-16 20:00N 40°41' W 074°01'4 7.5
2018-Jun-16 19:30N 40°44' W 073°58'4 1.2
2018-Jun-16 16:12N 40°47' W 073°55'2 5.2
2018-Jun-16 15:51N 40°46' W 073°57'2 4.7
2018-Jun-16 15:30N 40°44' W 073°58'2 3.2
2018-Jun-16 15:00N 40°43' W 073°58'3 5.3
2018-Jun-16 14:31N 40°41' W 074°01'2 4.5
2018-Jun-16 14:00N 40°40' W 074°03'0 0.1
2018-Jun-16 13:30N 40°40' W 074°03'1 1.0
2018-Jun-16 13:00N 40°40' W 074°03'1 1.0
2018-Jun-16 12:31N 40°40' W 074°03'1 1.7
2018-Jun-16 12:00N 40°40' W 074°03'3 5.6
2018-Jun-16 11:30N 40°43' W 074°02'6 0.3
2018-Jun-15 15:17N 40°49' W 073°59'2 7.8
2018-Jun-15 15:00N 40°47' W 074°00'4 7.5
2018-Jun-15 14:30N 40°43' W 074°02'4 7.1
2018-Jun-15 14:00N 40°40' W 074°03'0 0.0
2018-Jun-15 13:31N 40°40' W 074°03'0 0.0
2018-Jun-15 13:01N 40°40' W 074°03'0 0.0
2018-Jun-15 12:30N 40°40' W 074°03'0 0.0
2018-Jun-15 12:00N 40°40' W 074°03'2 3.7
2018-Jun-15 11:31N 40°40' W 074°01'2 3.7
2018-Jun-15 11:00N 40°40' W 074°03'0 0.1
2018-Jun-15 10:30N 40°40' W 074°03'0 0.7
2018-Jun-15 10:00N 40°40' W 074°03'2 4.9
2018-Jun-15 09:30N 40°42' W 074°02'2 4.5
2018-Jun-15 09:00N 40°44' W 074°01'8 0.4
2018-Jun-14 13:31N 40°52' W 073°56'5 8.4
2018-Jun-14 12:55N 40°48' W 073°59'3 8.0
2018-Jun-14 12:30N 40°45' W 074°01'4 7.3
2018-Jun-14 12:00N 40°41' W 074°02'2 3.0
2018-Jun-14 11:30N 40°40' W 074°03'0 0.0
2018-Jun-14 11:00N 40°40' W 074°03'0 0.2
2018-Jun-14 10:30N 40°40' W 074°03'0 0.4
2018-Jun-14 10:00N 40°40' W 074°03'2 3.4
2018-Jun-14 09:30N 40°41' W 074°02'3 5.2
2018-Jun-14 09:01N 40°44' W 074°01'7 0.3
2018-Jun-13 11:58N 40°50' W 073°58'3 7.2
2018-Jun-13 11:29N 40°47' W 073°60'3 6.5
2018-Jun-13 11:00N 40°44' W 074°01'3 6.1
2018-Jun-13 10:30N 40°41' W 074°03'1 2.0
2018-Jun-13 10:00N 40°40' W 074°03'0 0.2
2018-Jun-13 09:30N 40°40' W 074°03'0 0.0
2018-Jun-13 09:00N 40°40' W 074°03'0 0.1
2018-Jun-13 08:30N 40°40' W 074°03'0 0.0
2018-Jun-13 08:00N 40°40' W 074°03'0 0.0
2018-Jun-13 07:31N 40°40' W 074°03'0 0.0
2018-Jun-13 07:00N 40°40' W 074°03'0 0.0
2018-Jun-13 06:30N 40°40' W 074°03'0 0.0
2018-Jun-13 06:00N 40°40' W 074°03'0 0.1
2018-Jun-13 05:30N 40°40' W 074°03'0 0.1
2018-Jun-13 05:01N 40°40' W 074°03'0 0.2
2018-Jun-13 04:31N 40°40' W 074°03'0 0.7
2018-Jun-13 04:00N 40°40' W 074°03'1 1.5
2018-Jun-13 03:30N 40°40' W 074°02'4 7.2
2018-Jun-13 03:01N 40°43' W 073°58'3 0.4
2018-Jun-12 19:32N 40°46' W 073°57'0 8.2
2018-Jun-12 19:30N 40°46' W 073°57'3 7.0
2018-Jun-12 19:00N 40°42' W 073°59'3 5.6
2018-Jun-12 18:30N 40°40' W 074°02'1 1.0
2018-Jun-12 18:00N 40°40' W 074°01'1 1.0
2018-Jun-12 17:30N 40°40' W 074°02'1 1.6
2018-Jun-12 17:00N 40°40' W 074°03'1 1.3
2018-Jun-12 16:30N 40°40' W 074°03'0 0.1
2018-Jun-12 16:00N 40°40' W 074°03'2 4.5
2018-Jun-12 15:30N 40°42' W 074°02'3 6.6
2018-Jun-12 15:00N 40°45' W 074°01'3 0.2
2018-Jun-11 20:46N 40°48' W 073°59'2 7.3
2018-Jun-11 20:27N 40°46' W 074°01'4 6.8
2018-Jun-11 19:51N 40°42' W 074°02'2 6.0
2018-Jun-11 19:30N 40°40' W 074°03'0 0.0
2018-Jun-11 19:00N 40°40' W 074°03'0 0.0
2018-Jun-11 18:30N 40°40' W 074°03'0 0.0
2018-Jun-11 17:53N 40°40' W 074°03'0 0.0
2018-Jun-11 17:28N 40°40' W 074°03'0 0.0
2018-Jun-11 16:59N 40°40' W 074°03'0 0.0
2018-Jun-11 16:25N 40°40' W 074°03'0 0.1
2018-Jun-11 15:59N 40°40' W 074°03'2 0.4
2018-Jun-11 12:00N 40°39' W 074°05'3 6.1
2018-Jun-11 11:27N 40°40' W 074°01'0 0.1
2018-Jun-11 11:00N 40°40' W 074°01'0 0.0
2018-Jun-11 10:30N 40°40' W 074°01'0 0.0
2018-Jun-11 10:00N 40°40' W 074°01'0 0.0
2018-Jun-11 09:30N 40°40' W 074°01'0 0.0
2018-Jun-11 08:59N 40°40' W 074°01'0 0.0
2018-Jun-11 08:30N 40°40' W 074°01'0 0.0
2018-Jun-11 08:00N 40°40' W 074°01'0 0.0
2018-Jun-11 07:30N 40°40' W 074°01'0 0.0
2018-Jun-11 07:00N 40°40' W 074°01'0 0.0
2018-Jun-11 06:30N 40°40' W 074°01'0 0.0
2018-Jun-11 06:00N 40°40' W 074°01'0 0.0
2018-Jun-11 05:30N 40°40' W 074°01'0 0.0
2018-Jun-11 05:00N 40°40' W 074°01'0 0.0
2018-Jun-11 04:30N 40°40' W 074°01'0 0.0
2018-Jun-11 04:00N 40°40' W 074°01'0 0.0
2018-Jun-11 03:30N 40°40' W 074°01'0 0.0
2018-Jun-11 03:00N 40°40' W 074°01'0 0.0
2018-Jun-11 02:30N 40°40' W 074°01'1 1.2
2018-Jun-11 02:00N 40°40' W 074°01'5 8.7
2018-Jun-11 01:29N 40°39' W 074°07'4 6.5
2018-Jun-11 00:56N 40°38' W 074°12'0 1.0
2018-Jun-11 00:28N 40°39' W 074°11'4 8.8
2018-Jun-11 00:00N 40°39' W 074°06'2 4.4
2018-Jun-10 23:31N 40°40' W 074°03'0 0.2
2018-Jun-10 23:00N 40°40' W 074°03'1 2.6
2018-Jun-10 22:30N 40°41' W 074°02'1 3.0
2018-Jun-10 22:00N 40°43' W 074°02'1 2.8
2018-Jun-10 21:30N 40°44' W 074°01'1 2.7
2018-Jun-10 21:00N 40°45' W 074°01'8 0.3
2018-Jun-09 18:01N 40°52' W 073°56'0 3.7
2018-Jun-09 17:59N 40°52' W 073°56'3 3.3
2018-Jun-09 17:00N 40°49' W 073°58'1 2.5
2018-Jun-09 16:30N 40°48' W 073°59'1 2.1
2018-Jun-09 16:00N 40°47' W 073°59'2 1.9
2018-Jun-09 15:01N 40°46' W 074°01'1 2.3
2018-Jun-09 14:30N 40°45' W 074°01'1 2.4
2018-Jun-09 14:00N 40°43' W 074°02'1 2.9
2018-Jun-09 13:30N 40°42' W 074°02'2 3.3
2018-Jun-09 13:00N 40°40' W 074°03'1 1.5
2018-Jun-09 12:30N 40°40' W 074°03'0 0.0
2018-Jun-09 12:00N 40°40' W 074°03'1 2.3
2018-Jun-09 11:30N 40°41' W 074°02'4 8.3
2018-Jun-09 11:00N 40°43' W 073°58'3 0.4
2018-Jun-09 05:20N 40°46' W 073°57'2 6.8
2018-Jun-09 05:01N 40°44' W 073°58'3 5.7
2018-Jun-09 04:30N 40°41' W 074°00'3 5.1
2018-Jun-09 04:00N 40°40' W 074°03'0 0.5
2018-Jun-09 03:30N 40°40' W 074°03'0 0.0
2018-Jun-09 03:01N 40°40' W 074°03'0 0.0
2018-Jun-09 02:30N 40°40' W 074°03'0 0.2
2018-Jun-09 02:00N 40°40' W 074°03'0 0.1
2018-Jun-09 01:30N 40°40' W 074°03'0 0.2
2018-Jun-09 01:00N 40°40' W 074°03'0 0.0
2018-Jun-09 00:30N 40°40' W 074°03'0 0.9
2018-Jun-09 00:00N 40°40' W 074°03'2 4.5
2018-Jun-08 23:30N 40°40' W 073°60'1 2.1
2018-Jun-08 23:00N 40°40' W 074°01'2 3.2
2018-Jun-08 22:30N 40°40' W 074°03'0 0.1
2018-Jun-08 22:00N 40°40' W 074°03'1 1.1
2018-Jun-08 21:30N 40°40' W 074°03'1 1.1
2018-Jun-08 21:00N 40°40' W 074°03'2 3.7
2018-Jun-08 20:30N 40°40' W 074°01'0 0.2
2018-Jun-08 20:00N 40°40' W 074°01'2 3.9
2018-Jun-08 19:30N 40°40' W 074°03'0 0.2
2018-Jun-08 19:00N 40°40' W 074°03'0 0.4
2018-Jun-08 18:30N 40°40' W 074°04'2 3.2
2018-Jun-08 18:00N 40°41' W 074°02'2 4.4
2018-Jun-08 17:30N 40°43' W 074°01'3 5.3
2018-Jun-08 17:00N 40°46' W 074°01'  

Dump ship's entire track history